Jose Bonifacio, Brazil
Current Conditions -  °F | °C
As of 5:00 AM on Wednesday 26 Nov 2014 (Local Time) from SBSR Reporting Station
Light Rain Light Rain  
Wind Chill: 72°   Ceiling: 8000
Heat Index: 72°   Visibility: 1.8mi
Dew Point: 68°   Wind: 5mph
Humidity: 88%   Direction: 360°N
Pressure: NA   Gusts: NA
Location:  21.05°S, 49.69°W
Report Text: SBSR 260700Z 36004KT 3000 -RA BR SCT008 SCT015 OVC080 22/20 Q1010
Loading
Personal Weather Stations






























Interactive Weather Map New forecast layout! Learn more

10-Day Weather Forecast

Advertisements
Track Severe Weather on mobile